sensor_id;sensor_type;location;lat;lon;timestamp;pressure;altitude;pressure_sealevel;temperature;humidity
26839;BME280;40088;51.214;6.786;2024-02-26T00:08:36;99533.31;;;15.50;56.00
26839;BME280;40088;51.214;6.786;2024-02-26T00:18:36;99540.69;;;15.49;55.99
26839;BME280;40088;51.214;6.786;2024-02-26T00:28:41;99530.78;;;15.48;55.82
26839;BME280;40088;51.214;6.786;2024-02-26T00:38:42;99526.97;;;15.49;55.88
26839;BME280;40088;51.214;6.786;2024-02-26T00:48:45;99532.47;;;15.49;55.85
26839;BME280;40088;51.214;6.786;2024-02-26T00:58:45;99527.19;;;15.48;56.03
26839;BME280;40088;51.214;6.786;2024-02-26T01:08:47;99526.13;;;15.49;55.98
26839;BME280;40088;51.214;6.786;2024-02-26T01:18:47;99532.69;;;15.48;55.81
26839;BME280;40088;51.214;6.786;2024-02-26T01:28:48;99528.88;;;15.49;55.68
26839;BME280;40088;51.214;6.786;2024-02-26T01:38:50;99526.34;;;15.47;55.98
26839;BME280;40088;51.214;6.786;2024-02-26T01:48:50;99529.09;;;15.47;55.67
26839;BME280;40088;51.214;6.786;2024-02-26T01:58:51;99518.13;;;15.47;55.75
26839;BME280;40088;51.214;6.786;2024-02-26T02:08:52;99524.69;;;15.46;55.73
26839;BME280;40088;51.214;6.786;2024-02-26T02:18:52;99532.69;;;15.48;55.63
26839;BME280;40088;51.214;6.786;2024-02-26T02:28:53;99523.63;;;15.47;55.86
26839;BME280;40088;51.214;6.786;2024-02-26T02:38:54;99514.31;;;15.48;55.83
26839;BME280;40088;51.214;6.786;2024-02-26T02:48:54;99514.53;;;15.47;55.94
26839;BME280;40088;51.214;6.786;2024-02-26T03:09:51;99513.69;;;15.46;56.15
26839;BME280;40088;51.214;6.786;2024-02-26T03:41:25;99508.22;;;15.46;56.02
26839;BME280;40088;51.214;6.786;2024-02-26T03:51:26;99499.97;;;15.46;55.97
26839;BME280;40088;51.214;6.786;2024-02-26T04:01:56;99510.94;;;15.46;56.03
26839;BME280;40088;51.214;6.786;2024-02-26T04:11:56;99516.44;;;15.46;56.29
26839;BME280;40088;51.214;6.786;2024-02-26T04:21:57;99518.34;;;15.46;56.24
26839;BME280;40088;51.214;6.786;2024-02-26T04:31:58;99532.91;;;15.46;56.20
26839;BME280;40088;51.214;6.786;2024-02-26T04:41:58;99541.16;;;15.46;56.19
26839;BME280;40088;51.214;6.786;2024-02-26T04:52:33;99544.94;;;15.45;56.28
26839;BME280;40088;51.214;6.786;2024-02-26T05:03:03;99537.75;;;15.44;56.31
26839;BME280;40088;51.214;6.786;2024-02-26T05:13:33;99553.16;;;15.45;56.08
26839;BME280;40088;51.214;6.786;2024-02-26T05:23:34;99557.81;;;15.45;56.11
26839;BME280;40088;51.214;6.786;2024-02-26T05:33:34;99567.97;;;15.44;56.24
26839;BME280;40088;51.214;6.786;2024-02-26T05:43:35;99569.88;;;15.44;56.26
26839;BME280;40088;51.214;6.786;2024-02-26T05:53:36;99585.28;;;15.45;56.34
26839;BME280;40088;51.214;6.786;2024-02-26T06:03:36;99590.16;;;15.43;56.45
26839;BME280;40088;51.214;6.786;2024-02-26T06:13:37;99600.91;;;15.44;56.22
26839;BME280;40088;51.214;6.786;2024-02-26T06:23:38;99607.44;;;15.43;56.18
26839;BME280;40088;51.214;6.786;2024-02-26T06:33:40;99634.91;;;15.43;56.37
26839;BME280;40088;51.214;6.786;2024-02-26T06:53:46;99654.13;;;15.43;56.08
26839;BME280;40088;51.214;6.786;2024-02-26T07:13:51;99681.34;;;15.45;56.35
26839;BME280;40088;51.214;6.786;2024-02-26T07:23:52;99685.16;;;15.44;56.50
26839;BME280;40088;51.214;6.786;2024-02-26T07:33:52;99704.38;;;15.44;56.33
26839;BME280;40088;51.214;6.786;2024-02-26T07:43:53;99698.88;;;15.44;56.44
26839;BME280;40088;51.214;6.786;2024-02-26T07:53:54;99706.28;;;15.43;56.42
26839;BME280;40088;51.214;6.786;2024-02-26T08:03:54;99720.00;;;15.43;56.47
26839;BME280;40088;51.214;6.786;2024-02-26T08:13:55;99726.34;;;15.44;56.13
26839;BME280;40088;51.214;6.786;2024-02-26T08:23:56;99747.47;;;15.43;56.44
26839;BME280;40088;51.214;6.786;2024-02-26T08:33:57;99752.94;;;15.43;56.34
26839;BME280;40088;51.214;6.786;2024-02-26T08:43:59;99761.19;;;15.43;56.30
26839;BME280;40088;51.214;6.786;2024-02-26T08:53:59;99772.16;;;15.43;56.45
26839;BME280;40088;51.214;6.786;2024-02-26T09:04:00;99776.81;;;15.43;56.43
26839;BME280;40088;51.214;6.786;2024-02-26T09:14:01;99784.22;;;15.42;56.56
26839;BME280;40088;51.214;6.786;2024-02-26T09:24:02;99793.28;;;15.43;56.46
26839;BME280;40088;51.214;6.786;2024-02-26T09:34:02;99795.19;;;15.42;56.32
26839;BME280;40088;51.214;6.786;2024-02-26T09:44:04;99820.75;;;15.43;56.39
26839;BME280;40088;51.214;6.786;2024-02-26T09:54:09;99828.97;;;15.43;56.63
26839;BME280;40088;51.214;6.786;2024-02-26T10:04:10;99851.78;;;15.43;56.45
26839;BME280;40088;51.214;6.786;2024-02-26T10:14:12;99854.75;;;15.42;56.59
26839;BME280;40088;51.214;6.786;2024-02-26T10:24:14;99863.81;;;15.42;56.53
26839;BME280;40088;51.214;6.786;2024-02-26T10:34:15;99875.66;;;15.43;56.67
26839;BME280;40088;51.214;6.786;2024-02-26T10:44:15;99891.28;;;15.42;56.55
26839;BME280;40088;51.214;6.786;2024-02-26T10:54:16;99896.75;;;15.42;56.60
26839;BME280;40088;51.214;6.786;2024-02-26T11:04:17;99906.91;;;15.42;56.83
26839;BME280;40088;51.214;6.786;2024-02-26T11:14:18;99924.22;;;15.42;56.68
26839;BME280;40088;51.214;6.786;2024-02-26T11:24:18;99921.47;;;15.42;56.82
26839;BME280;40088;51.214;6.786;2024-02-26T11:34:19;99939.63;;;15.43;56.66
26839;BME280;40088;51.214;6.786;2024-02-26T11:44:29;99937.94;;;15.42;56.93
26839;BME280;40088;51.214;6.786;2024-02-26T11:54:50;99934.34;;;15.42;56.95
26839;BME280;40088;51.214;6.786;2024-02-26T12:04:51;99958.00;;;15.43;56.77
26839;BME280;40088;51.214;6.786;2024-02-26T12:14:53;99959.91;;;15.42;56.75
26839;BME280;40088;51.214;6.786;2024-02-26T12:24:59;99968.13;;;15.42;56.77
26839;BME280;40088;51.214;6.786;2024-02-26T12:35:01;99986.50;;;15.42;56.77
26839;BME280;40088;51.214;6.786;2024-02-26T12:56:13;100020.31;;;15.42;56.97
26839;BME280;40088;51.214;6.786;2024-02-26T13:06:15;100035.09;;;15.41;56.86
26839;BME280;40088;51.214;6.786;2024-02-26T13:16:16;100056.00;;;15.42;57.07
26839;BME280;40088;51.214;6.786;2024-02-26T13:26:21;100060.63;;;15.42;56.78
26839;BME280;40088;51.214;6.786;2024-02-26T13:36:24;100069.72;;;15.42;57.00
26839;BME280;40088;51.214;6.786;2024-02-26T13:46:26;100079.00;;;15.41;57.14
26839;BME280;40088;51.214;6.786;2024-02-26T13:56:27;100077.97;;;15.42;57.12
26839;BME280;40088;51.214;6.786;2024-02-26T14:06:27;100086.19;;;15.42;57.11
26839;BME280;40088;51.214;6.786;2024-02-26T14:16:28;100094.63;;;15.41;57.05
26839;BME280;40088;51.214;6.786;2024-02-26T14:26:28;100104.56;;;15.42;57.09
26839;BME280;40088;51.214;6.786;2024-02-26T14:36:29;100110.91;;;15.42;57.11
26839;BME280;40088;51.214;6.786;2024-02-26T14:46:30;100124.63;;;15.42;57.19
26839;BME280;40088;51.214;6.786;2024-02-26T14:56:30;100146.59;;;15.42;57.23
26839;BME280;40088;51.214;6.786;2024-02-26T15:06:30;100153.13;;;15.41;57.13
26839;BME280;40088;51.214;6.786;2024-02-26T15:16:31;100173.00;;;15.43;57.24
26839;BME280;40088;51.214;6.786;2024-02-26T15:26:31;100182.28;;;15.42;57.15
26839;BME280;40088;51.214;6.786;2024-02-26T15:47:15;100207.00;;;15.42;57.16
26839;BME280;40088;51.214;6.786;2024-02-26T15:57:15;100228.97;;;15.42;57.03
26839;BME280;40088;51.214;6.786;2024-02-26T16:07:29;100241.84;;;15.42;57.12
26839;BME280;40088;51.214;6.786;2024-02-26T16:17:34;100263.81;;;15.42;57.33
26839;BME280;40088;51.214;6.786;2024-02-26T16:27:35;100278.38;;;15.42;57.09
26839;BME280;40088;51.214;6.786;2024-02-26T16:37:36;100290.41;;;15.41;57.18
26839;BME280;40088;51.214;6.786;2024-02-26T16:47:37;100303.09;;;15.42;57.05
26839;BME280;40088;51.214;6.786;2024-02-26T16:57:39;100328.84;;;15.41;56.85
26839;BME280;40088;51.214;6.786;2024-02-26T17:07:40;100341.72;;;15.41;56.87
26839;BME280;40088;51.214;6.786;2024-02-26T17:17:41;100356.31;;;15.41;56.92
26839;BME280;40088;51.214;6.786;2024-02-26T17:27:42;100383.75;;;15.41;56.85
26839;BME280;40088;51.214;6.786;2024-02-26T17:37:43;100405.72;;;15.41;56.82
26839;BME280;40088;51.214;6.786;2024-02-26T17:47:47;100417.72;;;15.40;56.82
26839;BME280;40088;51.214;6.786;2024-02-26T17:57:50;100442.44;;;15.40;56.86
26839;BME280;40088;51.214;6.786;2024-02-26T18:07:51;100458.06;;;15.40;56.77
26839;BME280;40088;51.214;6.786;2024-02-26T18:17:55;100483.63;;;15.40;56.79
26839;BME280;40088;51.214;6.786;2024-02-26T18:27:55;100505.59;;;15.40;56.54
26839;BME280;40088;51.214;6.786;2024-02-26T18:37:57;100517.63;;;15.39;57.27
26839;BME280;40088;51.214;6.786;2024-02-26T18:47:57;100543.19;;;15.40;56.83
26839;BME280;40088;51.214;6.786;2024-02-26T18:57:58;100565.13;;;15.40;56.72
26839;BME280;40088;51.214;6.786;2024-02-26T19:08:00;100575.28;;;15.39;56.65
26839;BME280;40088;51.214;6.786;2024-02-26T19:18:01;100583.50;;;15.39;56.49
26839;BME280;40088;51.214;6.786;2024-02-26T19:28:02;100602.72;;;15.39;56.82
26839;BME280;40088;51.214;6.786;2024-02-26T19:38:03;100613.72;;;15.39;56.62
26839;BME280;40088;51.214;6.786;2024-02-26T19:48:03;100631.03;;;15.40;56.65
26839;BME280;40088;51.214;6.786;2024-02-26T19:58:04;100644.75;;;15.40;56.54
26839;BME280;40088;51.214;6.786;2024-02-26T20:08:05;100656.78;;;15.38;56.43
26839;BME280;40088;51.214;6.786;2024-02-26T20:18:06;100678.56;;;15.40;56.50
26839;BME280;40088;51.214;6.786;2024-02-26T20:28:07;100702.44;;;15.40;56.30
26839;BME280;40088;51.214;6.786;2024-02-26T20:38:08;100711.72;;;15.38;56.55
26839;BME280;40088;51.214;6.786;2024-02-26T20:48:09;100725.44;;;15.38;56.22
26839;BME280;40088;51.214;6.786;2024-02-26T20:58:10;100740.00;;;15.39;56.41
26839;BME280;40088;51.214;6.786;2024-02-26T21:08:10;100751.84;;;15.40;56.56
26839;BME280;40088;51.214;6.786;2024-02-26T21:18:11;100770.22;;;15.39;56.50
26839;BME280;40088;51.214;6.786;2024-02-26T21:28:12;100793.03;;;15.40;56.48
26839;BME280;40088;51.214;6.786;2024-02-26T21:38:12;100804.88;;;15.40;56.73
26839;BME280;40088;51.214;6.786;2024-02-26T21:48:13;100822.38;;;15.39;56.51
26839;BME280;40088;51.214;6.786;2024-02-26T21:58:13;100838.00;;;15.38;56.51
26839;BME280;40088;51.214;6.786;2024-02-26T22:08:29;100846.25;;;15.38;56.47
26839;BME280;40088;51.214;6.786;2024-02-26T22:18:30;100862.53;;;15.40;56.34
26839;BME280;40088;51.214;6.786;2024-02-26T22:28:30;100879.19;;;15.38;56.68
26839;BME280;40088;51.214;6.786;2024-02-26T22:38:31;100887.44;;;15.38;56.39
26839;BME280;40088;51.214;6.786;2024-02-26T22:48:33;100913.00;;;15.39;56.47
26839;BME280;40088;51.214;6.786;2024-02-26T22:58:34;100923.13;;;15.38;56.39
26839;BME280;40088;51.214;6.786;2024-02-26T23:08:34;100929.47;;;15.39;56.75
26839;BME280;40088;51.214;6.786;2024-02-26T23:18:36;100947.00;;;15.38;56.36
26839;BME280;40088;51.214;6.786;2024-02-26T23:28:37;100958.81;;;15.38;56.24
26839;BME280;40088;51.214;6.786;2024-02-26T23:38:38;100963.47;;;15.38;56.35
26839;BME280;40088;51.214;6.786;2024-02-26T23:48:38;100964.50;;;15.37;56.50
26839;BME280;40088;51.214;6.786;2024-02-26T23:58:38;100971.69;;;15.38;56.30
